createdAt,value
2022-08-26T00:02:13.985Z,2.37
2022-08-26T00:04:43.912Z,2.40
2022-08-26T00:07:12.530Z,3.17
2022-08-26T00:09:40.841Z,2.30
2022-08-26T00:12:12.446Z,2.70
2022-08-26T00:14:41.932Z,2.47
2022-08-26T00:17:10.548Z,2.47
2022-08-26T00:19:40.303Z,2.50
2022-08-26T00:22:08.601Z,2.57
2022-08-26T00:24:36.956Z,2.30
2022-08-26T00:27:06.497Z,2.63
2022-08-26T00:29:37.355Z,3.00
2022-08-26T00:32:07.245Z,2.40
2022-08-26T00:34:37.541Z,2.50
2022-08-26T00:37:08.969Z,2.40
2022-08-26T00:39:38.690Z,2.57
2022-08-26T00:42:07.194Z,2.20
2022-08-26T00:44:35.498Z,2.63
2022-08-26T00:47:06.893Z,2.50
2022-08-26T00:49:39.545Z,2.50
2022-08-26T00:52:14.605Z,2.70
2022-08-26T00:54:47.697Z,2.60
2022-08-26T00:57:19.273Z,2.63
2022-08-26T00:59:52.037Z,2.60
2022-08-26T01:02:21.339Z,2.50
2022-08-26T01:04:55.656Z,2.70
2022-08-26T01:07:27.633Z,2.43
2022-08-26T01:09:59.834Z,2.47
2022-08-26T01:12:32.425Z,2.70
2022-08-26T01:15:02.107Z,3.00
2022-08-26T01:17:30.456Z,2.50
2022-08-26T01:20:05.683Z,2.57
2022-08-26T01:22:45.471Z,2.50
2022-08-26T01:25:14.745Z,2.93
2022-08-26T01:27:43.945Z,2.50
2022-08-26T01:30:14.537Z,2.43
2022-08-26T01:32:43.989Z,2.50
2022-08-26T01:35:12.472Z,2.70
2022-08-26T01:37:42.678Z,2.70
2022-08-26T01:40:17.577Z,2.40
2022-08-26T01:42:46.968Z,2.90
2022-08-26T01:45:20.750Z,2.30
2022-08-26T01:47:56.990Z,2.73
2022-08-26T01:50:30.626Z,2.60
2022-08-26T01:53:05.777Z,2.67
2022-08-26T01:55:35.412Z,2.60
2022-08-26T01:58:08.866Z,2.70
2022-08-26T02:00:39.189Z,2.73
2022-08-26T02:03:18.235Z,2.47
2022-08-26T02:05:51.314Z,3.00
2022-08-26T02:08:24.928Z,2.80
2022-08-26T02:10:54.797Z,2.80
2022-08-26T02:13:25.544Z,2.47
2022-08-26T02:15:55.340Z,2.97
2022-08-26T02:18:25.117Z,2.60
2022-08-26T02:20:55.291Z,2.50
2022-08-26T02:23:25.577Z,2.70
2022-08-26T02:25:58.859Z,2.80
2022-08-26T02:28:33.360Z,2.93
2022-08-26T02:31:01.784Z,3.30
2022-08-26T02:33:31.816Z,2.90
2022-08-26T02:36:00.247Z,3.20
2022-08-26T02:38:30.225Z,2.67
2022-08-26T02:40:59.052Z,2.10
2022-08-26T02:43:31.484Z,2.70
2022-08-26T02:46:02.354Z,2.87
2022-08-26T02:48:31.249Z,3.20
2022-08-26T02:51:01.737Z,2.67
2022-08-26T02:53:35.541Z,2.87
2022-08-26T02:56:05.109Z,2.80
2022-08-26T02:58:33.513Z,2.60
2022-08-26T03:01:04.921Z,2.83
2022-08-26T03:03:34.148Z,2.70
2022-08-26T03:06:02.546Z,2.90
2022-08-26T03:08:32.201Z,2.73
2022-08-26T03:11:01.683Z,2.87
2022-08-26T03:13:30.282Z,3.03
2022-08-26T03:16:01.503Z,2.80
2022-08-26T03:18:29.916Z,2.60
2022-08-26T03:20:58.641Z,2.70
2022-08-26T03:23:26.920Z,2.97
2022-08-26T03:25:56.769Z,2.67
2022-08-26T03:28:27.143Z,2.60
2022-08-26T03:30:54.923Z,2.80
2022-08-26T03:33:23.245Z,2.60
2022-08-26T03:35:52.289Z,2.60
2022-08-26T03:38:21.469Z,2.73
2022-08-26T03:40:50.492Z,2.73
2022-08-26T03:43:21.434Z,2.60
2022-08-26T03:45:50.008Z,2.40
2022-08-26T03:48:19.577Z,2.80
2022-08-26T03:50:48.822Z,2.50
2022-08-26T03:53:20.556Z,2.70
2022-08-26T03:55:49.306Z,2.73
2022-08-26T03:58:24.145Z,2.60
2022-08-26T04:00:55.637Z,2.70
2022-08-26T04:03:38.370Z,2.10
2022-08-26T04:06:07.503Z,2.63
2022-08-26T04:08:36.162Z,2.20
2022-08-26T04:11:04.854Z,2.30
2022-08-26T04:13:34.630Z,2.40
2022-08-26T04:16:02.980Z,2.67
2022-08-26T04:18:37.228Z,2.47
2022-08-26T04:21:09.329Z,2.63
2022-08-26T04:23:47.742Z,2.20
2022-08-26T04:26:17.160Z,2.73
2022-08-26T04:28:46.834Z,2.60
2022-08-26T04:31:18.208Z,2.40
2022-08-26T04:33:49.886Z,2.70
2022-08-26T04:36:20.204Z,2.40
2022-08-26T04:38:50.678Z,2.60
2022-08-26T04:41:20.553Z,2.90
2022-08-26T04:43:50.334Z,2.70
2022-08-26T04:46:22.746Z,2.43
2022-08-26T04:48:52.335Z,2.60
2022-08-26T04:51:27.249Z,2.57
2022-08-26T04:53:57.217Z,2.30
2022-08-26T04:56:26.351Z,3.00
2022-08-26T04:58:56.515Z,2.77
2022-08-26T05:01:25.385Z,2.53
2022-08-26T05:03:54.769Z,2.47
2022-08-26T05:06:23.228Z,2.93
2022-08-26T05:08:51.690Z,2.70
2022-08-26T05:11:22.094Z,2.30
2022-08-26T05:13:50.889Z,2.70
2022-08-26T05:16:20.620Z,2.90
2022-08-26T05:18:49.029Z,2.80
2022-08-26T05:21:20.063Z,2.57
2022-08-26T05:23:51.216Z,2.60
2022-08-26T05:26:23.323Z,2.90
2022-08-26T05:28:54.718Z,3.60
2022-08-26T05:31:27.769Z,3.40
2022-08-26T05:33:57.535Z,3.30
2022-08-26T05:36:28.537Z,2.93
2022-08-26T05:38:57.767Z,2.60
2022-08-26T05:41:34.355Z,2.90
2022-08-26T05:44:08.487Z,2.73
2022-08-26T06:26:57.498Z,2.63
2022-08-26T06:30:27.141Z,2.60
2022-08-26T06:35:56.937Z,2.90
2022-08-26T06:38:40.137Z,2.80
2022-08-26T06:41:29.171Z,2.60
2022-08-26T06:44:44.757Z,2.50
2022-08-26T06:47:17.773Z,2.67
2022-08-26T06:49:46.438Z,2.60
2022-08-26T06:52:19.954Z,2.70
2022-08-26T06:54:59.409Z,2.43
2022-08-26T06:57:29.317Z,2.60
2022-08-26T07:00:00.776Z,2.60
2022-08-26T07:02:59.173Z,2.30
2022-08-26T07:05:30.035Z,2.37
2022-08-26T07:07:58.683Z,2.60
2022-08-26T07:10:28.103Z,2.47
2022-08-26T07:12:56.868Z,2.13
2022-08-26T07:15:31.017Z,2.30
2022-08-26T07:18:01.629Z,2.40
2022-08-26T07:20:30.362Z,2.33
2022-08-26T07:22:59.470Z,2.30
2022-08-26T07:25:28.072Z,2.40
2022-08-26T07:28:48.703Z,1.80
2022-08-26T07:31:18.344Z,2.33
2022-08-26T07:33:48.791Z,2.30
2022-08-26T07:36:18.743Z,2.13
2022-08-26T07:38:48.163Z,2.53
2022-08-26T07:41:20.169Z,2.63
2022-08-26T07:43:49.041Z,2.37
2022-08-26T07:46:20.765Z,2.10
2022-08-26T07:49:00.657Z,2.40
2022-08-26T07:51:29.417Z,2.47
2022-08-26T07:53:58.728Z,3.37
2022-08-26T07:56:30.043Z,2.30
2022-08-26T07:59:01.989Z,2.27
2022-08-26T08:01:33.453Z,2.57
2022-08-26T08:04:07.575Z,2.23
2022-08-26T10:16:47.430Z,2.00
2022-08-26T10:19:21.075Z,2.20
2022-08-26T10:21:54.090Z,2.03
2022-08-26T10:24:27.116Z,1.83
2022-08-26T10:27:03.647Z,3.83
2022-08-26T10:29:38.849Z,2.40
2022-08-26T10:32:15.429Z,3.60
2022-08-26T10:34:45.062Z,2.83
2022-08-26T10:37:19.327Z,2.10
2022-08-26T10:39:57.178Z,2.05
2022-08-26T10:42:33.599Z,1.90
2022-08-26T10:45:07.653Z,1.92
2022-08-26T14:26:39.748Z,1.50
2022-08-26T14:30:03.833Z,1.60
2022-08-26T14:32:34.173Z,1.30
2022-08-26T14:35:03.569Z,1.80
2022-08-26T14:37:32.925Z,1.60
2022-08-26T14:40:01.860Z,1.40
2022-08-26T16:56:57.902Z,3.50
2022-08-26T16:59:26.714Z,1.93
2022-08-26T17:01:56.161Z,1.40
2022-08-26T17:04:46.206Z,1.70
2022-08-26T17:07:40.432Z,1.47
2022-08-26T17:10:09.963Z,1.60
2022-08-26T17:13:06.436Z,1.40
2022-08-26T17:15:35.238Z,1.70
2022-08-26T17:18:04.271Z,1.60
2022-08-26T17:20:33.654Z,1.43
2022-08-26T17:23:21.378Z,1.40
2022-08-26T17:25:50.456Z,1.70
2022-08-26T17:28:20.916Z,2.50
2022-08-26T17:30:50.162Z,2.00
2022-08-26T17:33:39.521Z,1.80
2022-08-26T17:36:15.807Z,1.87
2022-08-26T17:38:50.180Z,1.70
2022-08-26T17:41:26.329Z,1.50
2022-08-26T17:43:57.187Z,1.70
2022-08-26T17:46:38.206Z,1.90
2022-08-26T17:49:08.596Z,1.67
2022-08-26T17:51:49.081Z,2.00
2022-08-26T17:54:27.777Z,2.20
2022-08-26T18:04:05.952Z,2.20
2022-08-26T18:06:35.166Z,1.87
2022-08-26T18:09:04.346Z,1.90
2022-08-26T18:11:34.722Z,2.03
2022-08-26T18:14:08.851Z,1.70
2022-08-26T18:16:38.511Z,1.53
2022-08-26T18:19:09.428Z,1.90
2022-08-26T18:21:38.678Z,2.03
2022-08-26T18:24:12.110Z,1.70
2022-08-26T18:26:48.033Z,1.60
2022-08-26T18:29:18.297Z,1.30
2022-08-26T18:31:47.124Z,1.70
2022-08-26T18:34:17.161Z,1.60
2022-08-26T18:36:45.733Z,1.70
2022-08-26T18:39:15.459Z,1.90
2022-08-26T18:41:47.944Z,1.70
2022-08-26T18:44:19.040Z,1.80
2022-08-26T18:46:48.297Z,2.00
2022-08-26T18:49:20.194Z,3.70
2022-08-26T18:51:51.057Z,1.70
2022-08-26T18:56:48.873Z,1.97
2022-08-26T18:59:17.459Z,1.80
2022-08-26T19:01:46.771Z,2.10
2022-08-26T19:04:22.051Z,2.93
2022-08-26T19:06:52.079Z,2.20
2022-08-26T19:09:22.929Z,1.90
2022-08-26T19:14:40.955Z,2.00
2022-08-26T19:17:31.660Z,2.00
2022-08-26T19:20:19.696Z,2.70
2022-08-26T19:23:10.610Z,1.97
2022-08-26T19:26:47.745Z,2.00
2022-08-26T20:00:39.094Z,1.80
2022-08-26T20:08:30.871Z,1.87
2022-08-26T20:11:42.289Z,2.07
2022-08-26T20:14:35.735Z,1.97
2022-08-26T20:18:05.657Z,2.00
2022-08-26T20:25:37.431Z,2.97
2022-08-26T20:28:51.001Z,2.80
2022-08-26T20:31:57.371Z,2.63
2022-08-26T20:38:55.846Z,2.47
2022-08-26T20:42:00.669Z,2.40
2022-08-26T20:44:54.727Z,2.37
2022-08-26T20:47:29.188Z,2.30
2022-08-26T20:49:58.499Z,2.57
2022-08-26T20:52:28.701Z,2.57
2022-08-26T20:54:57.411Z,2.50
2022-08-26T20:57:26.064Z,2.77
2022-08-26T20:59:55.011Z,2.27
2022-08-26T21:02:26.406Z,2.30
2022-08-26T21:04:59.284Z,2.27
2022-08-26T21:07:33.040Z,2.40
2022-08-26T21:10:21.650Z,2.63
2022-08-26T21:12:56.553Z,2.57
2022-08-26T21:15:36.298Z,2.20
2022-08-26T21:18:15.404Z,2.27
2022-08-26T21:20:52.988Z,2.27
2022-08-26T21:23:30.421Z,2.20
2022-08-26T21:26:20.034Z,2.30
2022-08-26T21:29:42.306Z,2.70
2022-08-26T21:32:16.582Z,3.23
2022-08-26T21:34:44.917Z,2.40
2022-08-26T21:37:17.011Z,2.53
2022-08-26T21:39:47.127Z,2.20
2022-08-26T21:42:15.445Z,2.50
2022-08-26T21:44:44.713Z,2.10
2022-08-26T21:47:17.297Z,2.30
2022-08-26T21:49:45.874Z,2.00
2022-08-26T21:52:14.211Z,2.50
2022-08-26T21:54:42.499Z,2.50
2022-08-26T21:57:19.414Z,2.37
2022-08-26T21:59:47.848Z,2.47
2022-08-26T22:02:16.184Z,2.33
2022-08-26T22:04:48.529Z,2.10
2022-08-26T22:07:19.093Z,2.30
2022-08-26T22:09:47.457Z,2.30
2022-08-26T22:12:18.274Z,2.53
2022-08-26T22:14:48.458Z,2.30
2022-08-26T22:17:16.966Z,2.80
2022-08-26T22:19:46.187Z,2.30
2022-08-26T22:22:15.588Z,2.30
2022-08-26T22:24:44.312Z,2.27
2022-08-26T22:27:14.053Z,2.30
2022-08-26T22:29:42.822Z,2.30
2022-08-26T22:32:12.633Z,2.70
2022-08-26T22:34:41.864Z,2.40
2022-08-26T22:37:10.261Z,2.53
2022-08-26T22:39:39.136Z,2.30
2022-08-26T22:42:07.605Z,2.50
2022-08-26T22:44:36.992Z,2.60
2022-08-26T22:47:05.452Z,2.40
2022-08-26T22:49:35.113Z,2.27
2022-08-26T22:52:03.848Z,2.93
2022-08-26T22:54:32.353Z,2.67
2022-08-26T22:57:00.680Z,2.70
2022-08-26T22:59:29.010Z,2.53
2022-08-26T23:01:57.326Z,2.67
2022-08-26T23:04:25.861Z,2.60
2022-08-26T23:06:55.606Z,2.80
2022-08-26T23:09:23.958Z,2.70
2022-08-26T23:11:53.373Z,3.00
2022-08-26T23:14:21.648Z,3.00
2022-08-26T23:16:50.529Z,3.10
2022-08-26T23:19:21.337Z,2.90
2022-08-26T23:21:49.718Z,3.27
2022-08-26T23:24:19.574Z,2.93
2022-08-26T23:26:47.881Z,3.00
2022-08-26T23:29:16.333Z,3.20
2022-08-26T23:31:44.999Z,3.23
2022-08-26T23:34:29.931Z,3.60
2022-08-26T23:36:58.940Z,3.27
2022-08-26T23:39:28.687Z,3.20
2022-08-26T23:41:57.403Z,3.20
2022-08-26T23:44:26.664Z,3.07
2022-08-26T23:46:55.298Z,2.70
2022-08-26T23:49:24.429Z,2.63
2022-08-26T23:52:10.873Z,3.43
2022-08-26T23:54:41.424Z,3.03
2022-08-26T23:57:10.908Z,3.30
2022-08-26T23:59:39.791Z,3.03
